Pittsburg, CA

11:49 AM PDT on September 18, 2014 (GMT -0700)
Travis Air Force Base | Change Station
CLOSE
Current Station
Airport
Location: Fairfield,
Elevation: 62 ft
Nearby Weather Stations

Elev 62 ft 38.27 °N, 121.95 °W | Updated 2 hours ago

Mostly Cloudy
Mostly Cloudy
68 °F
Feels Like 68 °F
N
9
Wind Variable Wind from South

Today
High -- | Low -- °F
--% Chance of Precip.
Yesterday
High -- | Low -- °F
Precip. -- in
6:52 AM 7:10 PM
Waning Crescent, 25% visible
Pressure 29.86 in
Visibility 10.0 miles
Clouds Clear
Dew Point 68 °F
Humidity 100%
Rainfall 0.00 in
Snow Depth 0 in , 0 in , 0 in
UV 2 out of 12
Pollen 5.10 out of 12
Air Quality Not available.
Flu Activity Not available.
METAR KSUU 181558Z AUTO 19008KT 10SM CLR 20/20 A2984 RMK AO2 CIG 044 RWY03R SLP111 T02030203 $

More Conditions Fewer Conditions

Pressure 29.86 in
Visibility 10.0 miles
Clouds Clear
Dew Point 68 °F
Humidity 100%
Rainfall 0.00 in
Snow Depth 0 in , 0 in , 0 in
UV 2 out of 12
Pollen 5.10 out of 12
Air Quality Not available.
Flu Activity Not available.
METAR KSUU 181558Z AUTO 19008KT 10SM CLR 20/20 A2984 RMK AO2 CIG 044 RWY03R SLP111 T02030203 $

More Conditions Fewer Conditions

10-Day Weather Forecast

Almanac

Astronomy

Sep. 18, 2014 Rise Set
Actual Time 6:52 AM PDT 7:10 PM PDT
Civil Twilight 6:25 AM PDT 7:37 PM PDT
Nautical Twilight 5:54 AM PDT 8:07 PM PDT
Astronomical Twilight 5:23 AM PDT 8:39 PM PDT
Moon 1:52 AM PDT 4:02 PM PDT
Length of Visible Light 13h 11m
Length of Day
12h 18m
Tomorrow will be 2m 25s shorter.
Waning Crescent, 25% of the Moon is Illuminated
Today
Waning Crescent
Sep 24
New
Oct 1
First Quarter
Oct 8
Full
Oct 15
Last Quarter

Today's Extremes

State Highs State Lows

Community

WunderPhotos

Upload Photos

1,754,417 photos uploaded!

Nearby

Air Quality

  Air Quality AQ Index Pollutant
Yesterday Good
OZONE
Yesterday Good
PM2.5
Thursday Good
OZONE
Friday Good
OZONE
Saturday Good
OZONE
Sunday Good
OZONE
Monday Good
OZONE

Snow Depth

Station Depth Elevation
Leavitt Meadows 0 in 7200 ft
Echo Peak 0 in 7800 ft
Blue Lakes 0 in 8000 ft
Forestdale Creek 0 in 8029 ft
CSS Lab 5 in 6900 ft

Earthquake Activity

City Distance Mag. Time & Date
The Geysers, California 67 miles 2.5 11:29 PM PDT
2014-09-17
Cobb, California 69 miles 2.7 1:23 PM PDT
2014-09-16
Minimum magnitude displayed is 2.5.

Coastal Water Temperatures

Place Temperature
Richmond, CA 68.0 °F
Port Chicago, CA 70.0 °F

Nearby Weather Stations